Time;durP1;ratioP1;P1;durP2;ratioP2;P2;SDS_P1;SDS_P2;PMS_P1;PMS_P2;Temp;Humidity;BMP_temperature;BMP_pressure;BME280_temperature;BME280_humidity;BME280_pressure;Samples;Min_cycle;Max_cycle;Signal;HPM_P1;HPM_P2
2022/04/28 00:00:43;;;;;;;7.43;6.82;;;19.20;99.90;;;;;;5068340;28;20469;-87
2022/04/28 00:03:11;;;;;;;8.00;7.20;;;19.10;99.90;;;;;;5068080;28;20373;-90
2022/04/28 00:05:39;;;;;;;7.53;6.82;;;19.10;99.90;;;;;;5067960;28;20432;-90
2022/04/28 00:08:06;;;;;;;7.45;6.82;;;19.10;99.90;;;;;;5067990;28;20537;-88
2022/04/28 00:10:34;;;;;;;6.80;6.22;;;19.10;99.90;;;;;;5067952;28;20451;-89
2022/04/28 00:13:01;;;;;;;6.20;5.70;;;19.10;99.90;;;;;;5067641;28;20412;-90
2022/04/28 00:15:29;;;;;;;6.18;5.57;;;19.20;99.90;;;;;;5067954;28;20378;-90
2022/04/28 00:17:56;;;;;;;5.40;5.00;;;19.30;99.90;;;;;;5067625;28;20452;-89
2022/04/28 00:20:24;;;;;;;4.88;4.38;;;19.50;99.90;;;;;;5067330;28;20425;-89
2022/04/28 00:22:51;;;;;;;5.13;4.70;;;19.50;99.90;;;;;;5067396;28;20375;-89
2022/04/28 00:25:20;;;;;;;5.75;5.35;;;19.40;99.90;;;;;;5067590;28;20845;-87
2022/04/28 00:27:48;;;;;;;7.20;6.63;;;19.40;99.90;;;;;;5078364;28;20384;-89
2022/04/28 00:30:15;;;;;;;11.07;10.02;;;19.40;99.90;;;;;;5069849;28;20374;-86
2022/04/28 00:32:42;;;;;;;13.35;11.95;;;19.30;99.90;;;;;;5067673;28;20382;-89
2022/04/28 00:35:09;;;;;;;13.23;11.93;;;19.40;99.90;;;;;;5067489;28;20401;-90
2022/04/28 00:37:36;;;;;;;16.20;14.68;;;19.40;99.90;;;;;;5067601;28;20493;-87
2022/04/28 00:40:04;;;;;;;15.95;14.30;;;19.40;99.90;;;;;;5066246;28;20417;-88
2022/04/28 00:42:31;;;;;;;17.15;15.45;;;19.40;99.90;;;;;;5067707;28;20393;-90
2022/04/28 00:44:58;;;;;;;17.92;16.13;;;19.50;99.90;;;;;;5077989;28;20879;-88
2022/04/28 00:50:38;;;;;;;17.57;15.87;;;19.70;99.90;;;;;;5069109;28;20372;-84
2022/04/28 00:52:58;;;;;;;13.90;12.43;;;20.00;99.90;;;;;;5087519;28;20973;-88
2022/04/28 00:55:27;;;;;;;13.10;11.80;;;20.10;99.90;;;;;;5087422;28;21050;-90
2022/04/28 00:57:54;;;;;;;12.05;10.95;;;19.80;99.90;;;;;;5087770;28;20478;-89
2022/04/28 01:00:21;;;;;;;11.30;10.10;;;19.90;99.90;;;;;;5087344;28;20999;-87
2022/04/28 01:02:48;;;;;;;9.80;8.90;;;20.10;99.90;;;;;;5076139;28;20366;-87
2022/04/28 01:05:15;;;;;;;8.80;8.00;;;20.30;99.90;;;;;;5067326;28;20382;-85
2022/04/28 01:07:42;;;;;;;7.70;6.30;;;20.50;99.90;;;;;;5067309;28;20460;-87
2022/04/28 01:10:09;;;;;;;5.13;4.30;;;20.80;99.90;;;;;;5066560;28;20378;-85
2022/04/28 01:12:36;;;;;;;4.75;3.95;;;21.00;99.90;;;;;;5066877;28;20873;-87
2022/04/28 01:15:05;;;;;;;3.75;3.45;;;21.00;99.90;;;;;;5067017;28;20477;-87
2022/04/28 01:17:32;;;;;;;3.65;3.35;;;20.80;99.90;;;;;;5068482;28;20488;-85
2022/04/28 01:19:59;;;;;;;4.15;3.55;;;20.60;99.90;;;;;;5068605;28;20496;-88
2022/04/28 01:22:27;;;;;;;3.50;3.20;;;20.50;99.90;;;;;;5066903;28;20455;-83
2022/04/28 01:24:54;;;;;;;3.50;2.80;;;20.20;99.90;;;;;;5070503;28;20757;-87
2022/04/28 01:27:21;;;;;;;4.40;2.95;;;20.20;99.90;;;;;;5075909;28;20368;-85
2022/04/28 01:29:48;;;;;;;3.20;2.90;;;20.00;99.90;;;;;;5066818;28;20402;-86
2022/04/28 01:32:15;;;;;;;3.25;3.00;;;19.90;99.90;;;;;;5066774;28;20427;-88
2022/04/28 01:34:42;;;;;;;3.30;3.00;;;19.90;99.90;;;;;;5066732;28;20432;-89
2022/04/28 01:37:09;;;;;;;3.63;3.20;;;19.90;99.90;;;;;;5058034;28;20453;-89
2022/04/28 01:39:36;;;;;;;3.10;2.80;;;20.10;99.90;;;;;;5086534;28;20431;-86
2022/04/28 01:42:05;;;;;;;3.60;3.30;;;20.10;99.90;;;;;;5087101;28;20746;-88
2022/04/28 01:44:33;;;;;;;3.38;3.10;;;20.20;99.90;;;;;;5068047;28;20385;-85
2022/04/28 01:47:00;;;;;;;4.45;3.42;;;20.30;99.90;;;;;;5066608;28;20404;-89
2022/04/28 01:49:28;;;;;;;3.30;3.00;;;20.40;99.90;;;;;;5066853;28;20429;-89
2022/04/28 01:54:58;;;;;;;3.35;3.05;;;20.40;99.90;;;;;;5082515;28;20772;-87
2022/04/28 01:57:30;;;;;;;6.03;3.03;;;20.10;99.90;;;;;;5086765;28;20376;-89
2022/04/28 01:59:59;;;;;;;3.63;3.33;;;20.00;99.90;;;;;;5086568;28;20400;-91
2022/04/28 02:02:26;;;;;;;3.95;3.55;;;20.00;99.90;;;;;;5086700;28;20396;-88
2022/04/28 02:04:58;;;;;;;4.93;4.20;;;20.00;99.90;;;;;;5068641;28;20381;-84
2022/04/28 02:07:26;;;;;;;4.68;4.35;;;19.90;99.90;;;;;;5082766;28;20370;-87
2022/04/28 02:09:53;;;;;;;5.28;4.63;;;19.80;99.90;;;;;;5070123;28;21195;-90
2022/04/28 02:12:20;;;;;;;4.65;4.13;;;19.80;99.90;;;;;;5072718;28;20374;-85
2022/04/28 02:14:48;;;;;;;5.22;4.78;;;19.80;99.90;;;;;;5080264;28;20784;-87
2022/04/28 02:17:19;;;;;;;5.33;4.93;;;19.80;99.90;;;;;;5072096;28;20366;-89
2022/04/28 02:19:46;;;;;;;5.85;5.35;;;19.80;99.90;;;;;;5073575;28;20398;-87
2022/04/28 02:22:13;;;;;;;6.67;5.80;;;19.70;99.90;;;;;;5077875;28;20390;-86
2022/04/28 02:24:40;;;;;;;6.50;5.93;;;19.70;99.90;;;;;;5070918;28;20378;-88
2022/04/28 02:27:07;;;;;;;6.83;6.20;;;19.60;99.90;;;;;;5073714;28;20465;-89
2022/04/28 02:29:34;;;;;;;7.20;6.50;;;19.60;99.90;;;;;;5090402;28;20854;-88
2022/04/28 02:32:02;;;;;;;5.65;5.10;;;19.60;99.90;;;;;;5088488;28;20391;-86
2022/04/28 02:34:29;;;;;;;6.03;5.50;;;19.50;99.90;;;;;;5075176;28;20463;-85
2022/04/28 02:36:57;;;;;;;6.30;5.70;;;19.50;99.90;;;;;;5068678;28;20373;-85
2022/04/28 02:39:24;;;;;;;5.68;5.05;;;19.70;99.90;;;;;;5075258;28;21198;-88
2022/04/28 02:41:51;;;;;;;5.70;5.20;;;19.80;99.90;;;;;;5084242;28;20724;-86
2022/04/28 02:44:18;;;;;;;5.20;4.05;;;20.00;99.90;;;;;;5087085;28;20395;-86
2022/04/28 02:46:48;;;;;;;3.60;3.30;;;20.10;99.90;;;;;;5075227;28;20385;-87
2022/04/28 02:49:15;;;;;;;4.18;3.78;;;20.10;99.90;;;;;;5070101;28;20865;-87
2022/04/28 02:51:43;;;;;;;4.15;3.83;;;19.90;99.90;;;;;;5086933;28;20384;-87
2022/04/28 02:54:11;;;;;;;4.20;3.72;;;19.80;99.90;;;;;;5088884;28;20384;-85
2022/04/28 02:56:38;;;;;;;4.70;4.30;;;19.70;99.90;;;;;;5077569;28;20865;-86
2022/04/28 02:59:05;;;;;;;4.70;4.38;;;19.70;99.90;;;;;;5066758;28;20441;-84
2022/04/28 03:01:32;;;;;;;4.80;4.40;;;19.80;99.90;;;;;;5070013;28;20385;-92
2022/04/28 03:03:59;;;;;;;6.10;5.50;;;19.80;99.90;;;;;;5086397;28;20376;-89
2022/04/28 03:11:57;;;;;;;9.48;7.70;;;20.00;99.90;;;;;;5069004;28;20373;-85
2022/04/28 03:14:24;;;;;;;7.63;6.25;;;20.00;99.90;;;;;;5070990;28;20465;-83
2022/04/28 03:16:51;;;;;;;7.10;6.40;;;19.90;99.90;;;;;;5079541;28;20368;-91
2022/04/28 03:19:20;;;;;;;5.90;5.40;;;19.80;99.90;;;;;;5090911;28;20396;-86
2022/04/28 03:21:47;;;;;;;5.60;4.03;;;19.80;99.90;;;;;;5096703;28;20388;-91
2022/04/28 03:24:18;;;;;;;4.25;3.80;;;19.90;99.90;;;;;;5061075;28;20427;-84
2022/04/28 03:26:49;;;;;;;4.30;3.35;;;19.80;99.90;;;;;;5079945;28;20385;-87
2022/04/28 03:29:16;;;;;;;3.87;2.90;;;19.70;99.90;;;;;;5097137;28;20372;-91
2022/04/28 03:31:44;;;;;;;3.47;3.17;;;19.60;99.90;;;;;;5091324;28;20385;-82
2022/04/28 03:34:15;;;;;;;3.30;3.00;;;19.50;99.90;;;;;;4974097;28;3403864;-83
2022/04/28 03:36:51;;;;;;;3.40;2.77;;;19.60;99.90;;;;;;5096907;28;20380;-89
2022/04/28 03:39:21;;;;;;;2.75;2.55;;;19.60;99.90;;;;;;5079521;28;20406;-88
2022/04/28 03:41:50;;;;;;;4.07;2.70;;;19.60;99.90;;;;;;5078877;28;20371;-87
2022/04/28 03:44:20;;;;;;;4.25;2.95;;;19.60;99.90;;;;;;5063775;28;20410;-89
2022/04/28 03:46:47;;;;;;;6.82;3.05;;;19.50;99.90;;;;;;5064837;28;20393;-86
2022/04/28 03:49:16;;;;;;;5.22;2.92;;;19.50;99.90;;;;;;5076816;28;20392;-86
2022/04/28 03:51:45;;;;;;;3.78;2.40;;;19.50;99.90;;;;;;5081280;28;20386;-85
2022/04/28 03:54:12;;;;;;;2.95;2.30;;;19.60;99.90;;;;;;5081333;28;20378;-83
2022/04/28 03:56:45;;;;;;;2.58;2.38;;;19.50;99.90;;;;;;5082639;28;20441;-83
2022/04/28 03:59:39;;;;;;;3.42;2.25;;;19.50;99.90;;;;;;5083039;28;20389;-83
2022/04/28 04:02:07;;;;;;;3.13;2.40;;;19.50;99.90;;;;;;5030157;28;20455;-89
2022/04/28 04:04:58;;;;;;;3.40;2.20;;;19.50;99.90;;;;;;5037070;28;20386;-83
2022/04/28 04:07:38;;;;;;;2.70;2.45;;;19.50;99.90;;;;;;4998252;28;20480;-92
2022/04/28 04:10:06;;;;;;;5.13;2.60;;;19.50;99.90;;;;;;4994042;28;20417;-93
2022/04/28 04:12:33;;;;;;;3.85;2.95;;;19.50;99.90;;;;;;4992353;28;20800;-92
2022/04/28 04:15:00;;;;;;;5.03;3.15;;;19.50;99.90;;;;;;4992456;28;20788;-87
2022/04/28 04:17:27;;;;;;;2.97;2.55;;;19.60;99.90;;;;;;4966780;28;20393;-86
2022/04/28 04:19:56;;;;;;;4.28;2.80;;;19.60;99.90;;;;;;4988457;28;20504;-90
2022/04/28 04:22:23;;;;;;;4.97;3.30;;;19.70;99.90;;;;;;4987343;28;20393;-87
2022/04/28 04:24:50;;;;;;;5.03;3.53;;;19.70;99.90;;;;;;4987123;28;20404;-88
2022/04/28 04:27:17;;;;;;;5.20;3.40;;;19.70;99.90;;;;;;4988190;28;20419;-91
2022/04/28 04:29:44;;;;;;;4.22;2.83;;;19.60;99.90;;;;;;4987286;28;20425;-90
2022/04/28 04:32:25;;;;;;;5.63;2.72;;;19.60;99.90;;;;;;4989972;28;20381;-89
2022/04/28 04:34:53;;;;;;;3.90;2.78;;;19.60;99.90;;;;;;4978066;28;20422;-85
2022/04/28 04:37:23;;;;;;;2.67;2.35;;;19.70;99.90;;;;;;4990179;28;20458;-88
2022/04/28 04:39:50;;;;;;;3.10;2.20;;;19.70;99.90;;;;;;4991892;28;21009;-91
2022/04/28 04:42:17;;;;;;;3.78;2.15;;;19.70;99.90;;;;;;4988716;28;20881;-87
2022/04/28 04:44:44;;;;;;;2.25;2.05;;;19.70;99.90;;;;;;5041944;28;20875;-90
2022/04/28 04:47:11;;;;;;;2.83;2.27;;;19.80;99.90;;;;;;5089829;28;20419;-90
2022/04/28 04:49:38;;;;;;;2.97;2.40;;;19.80;99.90;;;;;;5069919;28;20883;-88
2022/04/28 04:52:06;;;;;;;4.32;2.38;;;19.80;99.90;;;;;;5075739;28;20397;-90
2022/04/28 04:54:33;;;;;;;3.58;2.10;;;19.90;99.90;;;;;;5076809;28;20384;-90
2022/04/28 04:56:59;;;;;;;2.63;2.22;;;19.90;99.90;;;;;;5058977;28;20739;-88
2022/04/28 04:59:26;;;;;;;3.15;2.33;;;19.90;99.90;;;;;;5087266;28;20397;-89
2022/04/28 05:01:53;;;;;;;4.78;2.50;;;19.90;99.90;;;;;;5070099;28;20370;-85
2022/04/28 05:04:20;;;;;;;2.63;2.03;;;20.00;99.90;;;;;;5066767;28;20436;-88
2022/04/28 05:06:47;;;;;;;3.08;2.00;;;20.10;99.90;;;;;;5066913;28;20710;-91
2022/04/28 05:09:16;;;;;;;2.10;1.90;;;20.10;99.90;;;;;;5066803;28;20451;-87
2022/04/28 05:11:43;;;;;;;3.00;2.50;;;20.00;99.90;;;;;;5066508;28;20362;-88
2022/04/28 05:14:10;;;;;;;2.97;2.30;;;19.90;99.90;;;;;;5084272;28;20421;-88
2022/04/28 05:16:37;;;;;;;3.00;2.20;;;20.00;99.90;;;;;;5087384;28;20380;-88
2022/04/28 05:19:04;;;;;;;2.88;2.55;;;20.00;99.90;;;;;;5088771;28;20503;-84
2022/04/28 05:21:31;;;;;;;4.97;2.58;;;20.10;99.90;;;;;;5103904;28;20369;-82
2022/04/28 05:23:58;;;;;;;3.03;2.20;;;20.10;99.90;;;;;;5106668;28;20364;-85
2022/04/28 05:26:25;;;;;;;4.43;2.17;;;20.00;99.90;;;;;;5102101;28;20376;-89
2022/04/28 05:28:52;;;;;;;3.17;2.50;;;20.00;99.90;;;;;;5087439;28;20430;-91
2022/04/28 05:31:19;;;;;;;3.88;2.67;;;20.00;99.90;;;;;;5086183;28;20378;-88
2022/04/28 05:33:46;;;;;;;3.67;2.80;;;20.00;99.90;;;;;;5086640;28;20396;-89
2022/04/28 05:36:16;;;;;;;5.00;3.72;;;20.00;99.90;;;;;;5086825;28;20380;-90
2022/04/28 05:38:43;;;;;;;6.97;4.68;;;20.10;99.90;;;;;;5086545;28;20398;-87
2022/04/28 05:41:11;;;;;;;6.57;4.82;;;20.00;99.90;;;;;;5086777;28;20372;-88
2022/04/28 05:46:24;;;;;;;7.68;4.32;;;20.10;99.90;;;;;;5090211;28;20759;-90
2022/04/28 05:48:52;;;;;;;7.13;4.30;;;20.10;99.90;;;;;;5090563;28;20892;-86
2022/04/28 05:51:18;;;;;;;6.97;4.15;;;20.00;99.90;;;;;;5093651;28;20372;-90
2022/04/28 05:53:45;;;;;;;6.00;3.60;;;20.00;99.90;;;;;;5092026;28;20387;-82
2022/04/28 05:56:12;;;;;;;4.13;3.20;;;20.10;99.90;;;;;;5091529;28;20373;-85
2022/04/28 05:58:39;;;;;;;5.83;3.50;;;20.00;99.90;;;;;;5090306;28;20392;-84
2022/04/28 06:01:06;;;;;;;3.23;2.63;;;20.00;99.90;;;;;;5088365;28;20448;-84
2022/04/28 06:03:34;;;;;;;3.45;2.60;;;20.10;99.90;;;;;;5071998;28;20377;-90
2022/04/28 06:06:01;;;;;;;3.47;2.50;;;20.20;99.90;;;;;;5081184;28;20398;-89
2022/04/28 06:08:28;;;;;;;3.78;2.30;;;20.20;99.90;;;;;;5092336;28;20408;-87
2022/04/28 06:10:57;;;;;;;3.00;2.10;;;20.20;99.90;;;;;;5091283;28;20372;-86
2022/04/28 06:13:24;;;;;;;2.70;2.40;;;20.20;99.90;;;;;;5090468;28;20365;-88
2022/04/28 06:15:51;;;;;;;3.23;2.43;;;20.20;99.90;;;;;;5091397;28;20856;-84
2022/04/28 06:18:18;;;;;;;2.97;2.30;;;20.20;99.90;;;;;;5091316;28;20376;-86
2022/04/28 06:20:46;;;;;;;2.80;2.15;;;20.20;99.90;;;;;;5089452;28;20393;-85
2022/04/28 06:23:13;;;;;;;3.92;2.20;;;20.20;99.90;;;;;;5090664;28;20365;-83
2022/04/28 06:25:40;;;;;;;2.85;2.20;;;20.20;99.90;;;;;;5091143;28;20379;-83
2022/04/28 06:28:09;;;;;;;3.50;2.15;;;20.20;99.90;;;;;;5091077;28;20383;-85
2022/04/28 06:30:37;;;;;;;3.03;2.30;;;20.10;99.90;;;;;;5091196;28;20364;-84
2022/04/28 06:33:04;;;;;;;4.50;2.30;;;20.10;99.90;;;;;;5090613;28;20369;-85
2022/04/28 06:35:34;;;;;;;2.85;2.25;;;20.00;99.90;;;;;;5077333;28;20460;-86
2022/04/28 06:38:02;;;;;;;2.20;2.00;;;20.00;99.90;;;;;;5091296;28;20375;-87
2022/04/28 06:40:30;;;;;;;2.60;2.30;;;20.00;99.90;;;;;;5091388;28;20396;-88
2022/04/28 06:42:57;;;;;;;2.30;2.10;;;20.00;99.90;;;;;;5090768;28;21034;-85
2022/04/28 06:45:25;;;;;;;3.15;2.17;;;19.90;99.90;;;;;;5091313;28;20480;-88
2022/04/28 06:47:52;;;;;;;3.55;2.10;;;19.90;99.90;;;;;;5091419;28;20433;-83
2022/04/28 06:50:19;;;;;;;3.88;2.30;;;19.80;99.90;;;;;;5091636;28;20372;-88
2022/04/28 06:52:46;;;;;;;2.70;2.30;;;19.80;99.90;;;;;;5090427;28;20399;-86
2022/04/28 06:55:13;;;;;;;2.63;2.03;;;19.80;99.90;;;;;;5091143;28;20411;-83
2022/04/28 06:57:40;;;;;;;3.75;2.10;;;19.70;99.90;;;;;;5084803;28;20397;-84
2022/04/28 07:00:08;;;;;;;4.18;2.10;;;19.70;99.90;;;;;;5079561;28;20408;-84
2022/04/28 07:02:36;;;;;;;2.97;1.90;;;19.60;99.90;;;;;;5084269;28;20412;-87
2022/04/28 07:05:03;;;;;;;3.78;2.10;;;19.60;99.90;;;;;;5090146;28;20464;-85
2022/04/28 07:07:30;;;;;;;3.20;1.90;;;19.60;99.90;;;;;;5052658;28;20793;-86
2022/04/28 07:09:57;;;;;;;4.27;1.90;;;19.50;99.90;;;;;;5052208;28;20378;-81
2022/04/28 07:12:24;;;;;;;3.47;1.97;;;19.50;99.90;;;;;;5088405;28;20380;-85
2022/04/28 07:14:59;;;;;;;4.10;1.90;;;19.40;99.90;;;;;;5090629;28;20489;-86
2022/04/28 07:17:26;;;;;;;3.08;1.90;;;19.40;99.90;;;;;;5090001;28;20451;-86
2022/04/28 07:19:56;;;;;;;2.92;2.03;;;19.30;99.90;;;;;;5089762;28;20435;-83
2022/04/28 07:22:23;;;;;;;4.05;2.30;;;19.30;99.90;;;;;;5089943;28;20399;-82
2022/04/28 07:24:50;;;;;;;4.00;2.45;;;19.30;99.90;;;;;;5097196;28;20418;-83
2022/04/28 07:27:17;;;;;;;4.47;2.70;;;19.20;99.90;;;;;;5074381;28;20381;-86
2022/04/28 07:29:44;;;;;;;4.03;2.30;;;19.10;99.90;;;;;;5089955;28;20419;-88
2022/04/28 07:32:11;;;;;;;4.90;2.50;;;19.10;99.90;;;;;;5073891;28;20381;-86
2022/04/28 07:34:38;;;;;;;5.28;2.42;;;19.10;99.90;;;;;;5089188;28;20396;-88
2022/04/28 07:37:05;;;;;;;3.22;2.10;;;19.00;99.90;;;;;;5074788;28;20405;-88
2022/04/28 07:39:32;;;;;;;4.03;2.30;;;19.00;99.90;;;;;;5075177;28;20487;-87
2022/04/28 07:41:59;;;;;;;3.40;2.30;;;18.90;99.90;;;;;;5072679;28;20413;-83
2022/04/28 07:44:26;;;;;;;3.60;2.22;;;18.90;99.90;;;;;;5082440;28;20418;-88
2022/04/28 07:46:53;;;;;;;2.25;1.95;;;18.90;99.90;;;;;;5072149;28;20409;-90
2022/04/28 07:49:21;;;;;;;3.25;2.03;;;18.90;99.90;;;;;;5076629;28;20378;-94
2022/04/28 07:51:54;;;;;;;4.05;2.30;;;18.80;99.90;;;;;;5072091;28;20384;-85
2022/04/28 07:54:21;;;;;;;2.63;2.30;;;18.80;99.90;;;;;;5085034;28;20371;-92
2022/04/28 07:56:48;;;;;;;3.58;2.60;;;18.80;99.90;;;;;;5088937;28;20385;-88
2022/04/28 07:59:15;;;;;;;3.42;2.55;;;18.70;99.90;;;;;;5069120;28;20766;-87
2022/04/28 08:01:42;;;;;;;5.22;2.80;;;18.70;99.90;;;;;;5067908;28;20738;-85
2022/04/28 08:04:09;;;;;;;4.55;3.30;;;18.70;99.90;;;;;;5068583;28;20449;-84
2022/04/28 08:06:36;;;;;;;4.07;3.33;;;18.60;99.90;;;;;;5082243;28;20388;-85
2022/04/28 08:09:03;;;;;;;9.05;6.18;;;18.60;99.90;;;;;;5074490;28;20899;-84
2022/04/28 08:11:31;;;;;;;10.75;8.10;;;18.50;99.90;;;;;;5089235;28;20403;-85
2022/04/28 08:13:58;;;;;;;11.57;9.67;;;18.50;99.90;;;;;;5070830;28;20383;-86
2022/04/28 08:16:25;;;;;;;14.10;12.60;;;18.50;99.90;;;;;;5089780;28;20376;-84
2022/04/28 08:18:54;;;;;;;12.73;11.05;;;18.50;99.90;;;;;;5081640;28;20446;-84
2022/04/28 08:21:22;;;;;;;10.02;9.02;;;18.50;99.90;;;;;;5076470;28;20461;-86
2022/04/28 08:23:49;;;;;;;13.93;9.30;;;18.50;99.90;;;;;;5068037;28;20374;-87
2022/04/28 08:26:19;;;;;;;9.57;7.55;;;18.40;99.90;;;;;;5068716;28;20450;-87
2022/04/28 08:28:49;;;;;;;8.45;7.60;;;18.50;99.90;;;;;;5086753;28;20387;-84
2022/04/28 08:31:16;;;;;;;10.27;8.02;;;18.40;99.90;;;;;;5097759;28;20368;-84
2022/04/28 08:33:43;;;;;;;11.02;8.30;;;18.50;99.90;;;;;;5092490;28;20383;-88
2022/04/28 08:36:09;;;;;;;14.93;11.18;;;18.50;99.90;;;;;;5089238;28;20380;-86
2022/04/28 08:38:36;;;;;;;18.10;13.98;;;18.50;99.90;;;;;;5084233;28;20435;-84
2022/04/28 08:41:08;;;;;;;17.13;14.95;;;18.50;99.90;;;;;;5079759;28;20388;-86
2022/04/28 08:43:37;;;;;;;17.20;13.93;;;18.40;99.90;;;;;;5089745;28;20365;-88
2022/04/28 08:48:52;;;;;;;9.80;7.53;;;18.50;99.90;;;;;;5079051;28;20519;-87
2022/04/28 08:51:20;;;;;;;8.65;7.25;;;18.50;99.90;;;;;;5069921;28;20374;-89
2022/04/28 08:53:49;;;;;;;8.75;6.97;;;18.50;99.90;;;;;;5070121;28;20382;-88
2022/04/28 08:56:18;;;;;;;8.88;6.60;;;18.40;99.90;;;;;;5072255;28;20514;-90
2022/04/28 08:58:45;;;;;;;7.95;6.30;;;18.50;99.90;;;;;;5075482;28;20403;-87
2022/04/28 09:01:12;;;;;;;7.60;6.22;;;18.50;99.90;;;;;;5068620;28;20425;-87
2022/04/28 09:03:41;;;;;;;6.57;5.88;;;18.50;99.90;;;;;;5089010;28;20523;-88
2022/04/28 09:06:18;;;;;;;6.70;6.00;;;18.40;99.90;;;;;;5085934;28;20459;-86
2022/04/28 09:08:46;;;;;;;9.77;7.20;;;18.40;99.90;;;;;;5082788;28;20707;-86
2022/04/28 09:11:24;;;;;;;9.57;8.57;;;18.40;99.90;;;;;;5083493;28;20398;-87
2022/04/28 09:14:09;;;;;;;11.27;8.70;;;18.30;99.90;;;;;;5073868;28;20385;-85
2022/04/28 09:16:42;;;;;;;8.70;7.30;;;18.30;99.90;;;;;;5077419;28;20862;-84
2022/04/28 09:19:11;;;;;;;6.85;6.10;;;18.30;99.90;;;;;;5066376;28;20394;-86
2022/04/28 09:21:39;;;;;;;7.75;5.80;;;18.30;99.90;;;;;;5068575;28;20538;-86
2022/04/28 09:24:09;;;;;;;7.57;5.90;;;18.30;99.90;;;;;;5076025;28;20373;-84
2022/04/28 09:26:37;;;;;;;8.07;6.60;;;18.30;99.90;;;;;;5071902;28;20878;-84
2022/04/28 09:29:06;;;;;;;8.18;6.07;;;18.30;99.90;;;;;;5075802;28;20396;-83
2022/04/28 09:31:38;;;;;;;6.80;6.15;;;18.30;99.90;;;;;;5080582;28;20382;-87
2022/04/28 09:34:07;;;;;;;7.00;6.30;;;18.40;99.90;;;;;;5073287;28;20385;-84
2022/04/28 09:36:34;;;;;;;8.73;7.25;;;18.30;99.90;;;;;;5066821;28;20366;-86
2022/04/28 09:39:02;;;;;;;8.38;7.07;;;18.30;99.90;;;;;;5083709;28;20432;-83
2022/04/28 09:44:14;;;;;;;8.68;7.10;;;18.30;99.90;;;;;;5073901;28;20425;-85
2022/04/28 09:46:45;;;;;;;9.15;8.20;;;18.30;99.90;;;;;;5073693;28;20390;-84
2022/04/28 09:49:14;;;;;;;9.85;8.50;;;18.30;99.90;;;;;;5075872;28;20386;-85
2022/04/28 09:51:42;;;;;;;11.23;9.65;;;18.30;99.90;;;;;;5066991;28;20405;-84
2022/04/28 09:54:11;;;;;;;12.00;10.68;;;18.30;99.90;;;;;;5087643;28;20364;-82
2022/04/28 09:56:41;;;;;;;17.10;13.30;;;18.30;99.90;;;;;;5085788;28;20393;-87
2022/04/28 09:59:11;;;;;;;18.48;15.75;;;18.20;99.90;;;;;;5066286;28;20408;-86
2022/04/28 10:01:38;;;;;;;19.60;17.50;;;18.20;99.90;;;;;;5073854;28;20465;-86
2022/04/28 10:04:07;;;;;;;18.38;15.80;;;18.20;99.90;;;;;;5083535;28;20446;-85
2022/04/28 10:06:35;;;;;;;14.95;12.48;;;18.10;99.90;;;;;;5083647;28;20434;-83
2022/04/28 10:09:11;;;;;;;13.30;10.02;;;18.10;99.90;;;;;;5054796;28;20378;-85
2022/04/28 10:11:39;;;;;;;9.80;8.35;;;18.10;99.90;;;;;;5067559;28;20378;-82
2022/04/28 10:14:08;;;;;;;8.03;5.93;;;18.10;99.90;;;;;;5073712;28;21046;-86
2022/04/28 10:16:36;;;;;;;7.47;5.03;;;18.10;99.90;;;;;;5076529;28;20392;-84
2022/04/28 10:19:24;;;;;;;5.28;4.75;;;18.10;99.90;;;;;;5074568;28;20796;-86
2022/04/28 10:21:55;;;;;;;5.47;4.97;;;18.10;99.90;;;;;;5062504;28;20393;-85
2022/04/28 10:33:10;;;;;;;7.55;4.57;;;17.90;99.90;;;;;;5074007;28;20450;-85
2022/04/28 10:35:48;;;;;;;5.40;4.20;;;17.90;99.90;;;;;;5071796;28;20396;-82
2022/04/28 10:38:23;;;;;;;4.55;4.07;;;17.80;99.90;;;;;;5072082;28;20933;-82
2022/04/28 10:41:26;;;;;;;5.63;5.00;;;17.70;99.90;;;;;;5055668;28;20410;-82
2022/04/28 10:43:53;;;;;;;5.33;4.13;;;17.70;99.90;;;;;;5071085;28;20388;-82
2022/04/28 10:46:22;;;;;;;5.43;3.63;;;17.70;99.90;;;;;;5078594;28;20494;-82
2022/04/28 10:49:03;;;;;;;8.60;4.10;;;17.70;99.90;;;;;;5087760;28;20732;-85
2022/04/28 10:51:34;;;;;;;6.93;3.63;;;17.70;99.90;;;;;;5073376;28;20393;-82
2022/04/28 10:54:09;;;;;;;4.20;3.80;;;17.70;99.90;;;;;;5077506;28;20388;-82
2022/04/28 10:56:54;;;;;;;4.05;3.65;;;17.80;99.90;;;;;;5086221;28;20437;-85
2022/04/28 10:59:32;;;;;;;4.30;3.70;;;17.80;99.90;;;;;;5082672;28;20893;-84
2022/04/28 11:02:19;;;;;;;4.32;3.90;;;17.80;99.90;;;;;;5070820;28;20378;-82
2022/04/28 11:04:56;;;;;;;6.95;3.83;;;17.70;99.90;;;;;;4991949;28;20471;-83
2022/04/28 11:07:28;;;;;;;5.05;3.72;;;17.70;99.90;;;;;;4988512;28;20489;-84
2022/04/28 11:09:59;;;;;;;5.38;4.05;;;17.70;99.90;;;;;;4988347;28;20865;-85
2022/04/28 11:12:38;;;;;;;5.60;4.10;;;17.60;99.90;;;;;;4999284;28;20732;-83
2022/04/28 11:15:08;;;;;;;5.10;4.50;;;17.60;99.90;;;;;;5008122;28;20871;-84
2022/04/28 11:17:38;;;;;;;9.52;8.15;;;17.60;99.90;;;;;;5008482;28;20482;-84
2022/04/28 11:20:10;;;;;;;11.32;7.65;;;17.70;99.90;;;;;;5007020;28;20446;-82
2022/04/28 11:22:40;;;;;;;7.40;5.68;;;17.70;99.90;;;;;;5007508;28;20387;-82
2022/04/28 11:25:14;;;;;;;4.85;4.40;;;17.80;99.90;;;;;;5007966;28;20395;-82
2022/04/28 11:27:43;;;;;;;4.80;3.97;;;17.90;99.90;;;;;;5008616;28;20387;-83
2022/04/28 11:30:16;;;;;;;4.90;4.03;;;18.00;99.90;;;;;;5008377;28;20814;-82
2022/04/28 11:32:57;;;;;;;4.68;3.70;;;18.00;99.90;;;;;;5007879;28;20541;-82
2022/04/28 11:35:31;;;;;;;6.43;4.50;;;18.00;99.90;;;;;;5007286;28;20905;-83
2022/04/28 11:37:58;;;;;;;5.82;4.50;;;18.00;99.90;;;;;;5007990;28;20479;-86
2022/04/28 11:40:25;;;;;;;4.90;4.00;;;18.00;99.90;;;;;;5007064;28;20622;-81
2022/04/28 11:43:00;;;;;;;4.93;3.97;;;17.90;99.90;;;;;;5074119;28;20448;-81
2022/04/28 11:45:32;;;;;;;5.07;4.13;;;17.80;99.90;;;;;;5082750;28;20388;-84
2022/04/28 11:48:03;;;;;;;4.93;4.40;;;17.80;99.90;;;;;;5082757;28;20736;-84
2022/04/28 11:50:34;;;;;;;4.85;4.45;;;17.70;99.90;;;;;;5072045;28;20382;-82
2022/04/28 11:53:14;;;;;;;5.03;4.30;;;17.60;99.90;;;;;;5085873;28;20451;-82
2022/04/28 11:55:42;;;;;;;5.03;4.53;;;17.60;99.90;;;;;;5079212;28;20399;-84
2022/04/28 11:58:12;;;;;;;6.40;4.78;;;17.50;99.90;;;;;;5080158;28;20373;-85
2022/04/28 12:00:41;;;;;;;8.95;5.90;;;17.50;99.90;;;;;;5070134;28;20402;-83
2022/04/28 12:03:09;;;;;;;6.25;5.00;;;17.50;99.90;;;;;;5069688;28;20379;-84
2022/04/28 12:05:36;;;;;;;6.50;5.75;;;17.40;99.90;;;;;;5070890;28;20862;-86
2022/04/28 12:08:04;;;;;;;8.00;6.20;;;17.40;99.90;;;;;;5069471;28;20389;-81
2022/04/28 12:19:50;;;;;;;10.32;7.75;;;17.20;99.90;;;;;;5073789;28;20972;-83
2022/04/28 12:22:37;;;;;;;9.18;7.15;;;17.10;99.90;;;;;;5067695;22;20459;-81
2022/04/28 12:25:15;;;;;;;10.52;8.40;;;17.10;99.90;;;;;;5064088;28;20801;-82
2022/04/28 12:27:44;;;;;;;10.70;9.10;;;17.00;99.90;;;;;;5066362;28;20715;-81
2022/04/28 12:30:13;;;;;;;18.45;15.02;;;17.00;99.90;;;;;;5066673;28;20462;-83
2022/04/28 12:32:58;;;;;;;20.20;15.10;;;17.00;99.90;;;;;;5067520;28;20393;-84
2022/04/28 12:35:32;;;;;;;26.80;19.37;;;16.90;99.90;;;;;;5059877;28;20788;-81
2022/04/28 12:38:10;;;;;;;31.13;20.50;;;17.00;99.90;;;;;;5066118;28;20422;-84
2022/04/28 12:40:42;;;;;;;30.08;20.20;;;17.00;99.90;;;;;;5067200;28;20405;-85
2022/04/28 12:43:10;;;;;;;24.50;16.77;;;17.10;99.90;;;;;;5066639;28;20409;-83
2022/04/28 12:45:42;;;;;;;19.63;13.82;;;17.10;99.90;;;;;;5066850;28;20995;-84
2022/04/28 12:48:35;;;;;;;25.27;16.98;;;17.10;99.90;;;;;;5067183;28;20796;-83
2022/04/28 12:51:17;;;;;;;18.80;13.10;;;17.00;99.90;;;;;;5066701;28;20444;-82
2022/04/28 12:53:46;;;;;;;18.48;12.05;;;17.00;99.90;;;;;;5067060;28;20968;-82
2022/04/28 12:56:16;;;;;;;11.88;9.80;;;17.00;99.90;;;;;;5067057;28;20394;-83
2022/04/28 12:58:51;;;;;;;14.18;9.98;;;17.00;99.90;;;;;;5066734;28;20477;-82
2022/04/28 13:01:20;;;;;;;9.65;7.78;;;17.00;99.90;;;;;;5066820;28;20460;-83
2022/04/28 13:03:58;;;;;;;11.13;8.70;;;16.90;99.90;;;;;;5066788;28;20425;-84
2022/04/28 13:06:31;;;;;;;13.00;9.00;;;16.80;99.90;;;;;;5065634;28;20397;-84
2022/04/28 13:09:00;;;;;;;14.73;10.05;;;16.90;99.90;;;;;;5067167;28;20416;-84
2022/04/28 13:11:32;;;;;;;12.80;9.40;;;16.90;99.90;;;;;;5065711;28;20519;-83
2022/04/28 13:14:01;;;;;;;15.73;10.00;;;17.00;99.90;;;;;;5066376;28;20421;-83
2022/04/28 13:16:29;;;;;;;12.55;9.05;;;16.90;99.90;;;;;;5066443;28;20935;-84
2022/04/28 13:18:56;;;;;;;13.57;9.52;;;16.90;99.90;;;;;;5066092;28;20398;-82
2022/04/28 13:21:23;;;;;;;11.32;8.52;;;16.90;99.90;;;;;;5065904;28;20448;-83
2022/04/28 13:23:51;;;;;;;11.48;8.05;;;16.80;99.90;;;;;;5067109;28;20385;-83
2022/04/28 13:26:20;;;;;;;10.13;8.50;;;16.70;99.90;;;;;;5064799;28;20386;-83
2022/04/28 13:28:49;;;;;;;11.85;8.82;;;16.70;99.90;;;;;;5066254;28;20473;-85
2022/04/28 13:31:16;;;;;;;14.43;9.10;;;16.60;99.90;;;;;;5066421;28;20387;-82